Where is Almeirim, Santarem in Portugal?

 

Almeirim is situated in the region Santarem in Portugal!

Search the name of a city:

Almécega Velha, Almerswind, Almeida, Almendra, Almendorf

Here you will find the location of Almeirim on a map.
To see how it currently looks like outside, below are some pictures of the area from online web cameras.
You can also find the distance to the main cities in the region and to cities in the rest of Portugal.

There are 2 cities named Almeirim in Portugal.

World Cities
Cities in Portugal that are also found in other countries in the world.


Where is Almeirim on the map?




Webcams near Almeirim

Benavente › North-East: Santarém - AIrport, METAR: BENAV 180005Z 36004KT 17/14 Q1015.


Benavente › North-East: Santarém - AIrport, METAR: BENAV 180005Z 36004KT 17/14 Q1015 - Day time
Current
Benavente › North-East: Santarém - AIrport, METAR: BENAV 180005Z 36004KT 17/14 Q1015 - Current

Sao Pedro de Tomar › North: Tomar -> N.


Sao Pedro de Tomar › North: Tomar -> N - Day time
Current
Sao Pedro de Tomar › North: Tomar -> N - Current

Sao Pedro de Tomar › North-East: Tomar -> NE.


Sao Pedro de Tomar › North-East: Tomar -> NE - Day time
Current
Sao Pedro de Tomar › North-East: Tomar -> NE - Current

Webcams provided by windy.comadd a webcam


Distances

Where is Almeirim relative to other places?

Top 10 cities in Santarem and distance from Almeirim.

City#Populationkmmiles
Santarém12938564
Entroncamento2198873220
Tomar3191684729
Torres Novas4145263119
Samora Correia5141543723
Abrantes6136464729
Ourém7127294830
Rio Maior8120643119
Fátima9117984729
Almeirim101155600

Top 10 cities in Portugal and distance from Almeirim.

City # Populationkmmiles
Lisbon15177987144
Porto2249630216134
Amadora31788567446
Braga4121393261162
Setúbal51171097949
Coimbra610658011370
Queluz71033987446
Funchal8980411044649
Vila Nova de Gaia970810214133
Loures10662306440



Alerts and advice Portugal

Advice and information about traveling and security in Portugal.

With a travel advise, tourists can be informed about security risks during traveling or vacation in a foreign country. Be informed about the risks of kidnapping, armed robbery, bombings, natural disasters or war. Know which areas are unsafe in Portugalo. Be vigilant, or avoid certain areas when on vacation in Portugal.

Alerts and advice



Travel information Portugal

Information on travel documents, visa applications and the cost of a visa.
Contact information of embassies in Portugal.
Different types of travel insurance.

Travel information

Info

Statistics and Geographics

Portugal is made up of 15299 cities in 20 regions.

The region Santarem has 1174 cities.

Almeirim is number 10 in the region Santarem.

The city is number 140 in Portugal.

The population is 11561.

Where is Almeirim, Santarem in Portugal?